createdAt,value
2023-03-17T00:01:54.463Z,7.27
2023-03-17T00:04:56.312Z,9.57
2023-03-17T00:08:21.252Z,9.57
2023-03-17T00:11:23.431Z,8.40
2023-03-17T00:14:25.299Z,6.67
2023-03-17T00:17:27.200Z,8.90
2023-03-17T00:20:31.891Z,7.93
2023-03-17T00:23:35.179Z,8.33
2023-03-17T00:26:36.819Z,7.13
2023-03-17T00:29:39.908Z,11.27
2023-03-17T00:32:41.578Z,6.53
2023-03-17T00:35:46.366Z,7.47
2023-03-17T00:38:48.518Z,10.23
2023-03-17T00:41:50.137Z,6.87
2023-03-17T00:44:52.123Z,7.80
2023-03-17T00:47:57.882Z,6.37
2023-03-17T00:50:59.654Z,8.63
2023-03-17T00:54:01.518Z,6.60
2023-03-17T00:57:03.158Z,7.83
2023-03-17T01:00:06.545Z,10.50
2023-03-17T01:03:11.447Z,7.53
2023-03-17T01:06:13.712Z,9.27
2023-03-17T01:09:18.339Z,8.30
2023-03-17T01:12:20.692Z,7.07
2023-03-17T01:15:22.992Z,6.40
2023-03-17T01:18:24.690Z,9.43
2023-03-17T01:21:26.475Z,8.10
2023-03-17T01:24:28.500Z,9.83
2023-03-17T01:27:34.965Z,9.70
2023-03-17T01:30:39.251Z,7.07
2023-03-17T01:33:41.345Z,8.23
2023-03-17T01:36:43.127Z,6.90
2023-03-17T01:39:45.414Z,7.27
2023-03-17T01:43:00.268Z,6.17
2023-03-17T01:46:29.119Z,8.13
2023-03-17T01:49:37.364Z,10.10
2023-03-17T01:52:40.376Z,5.70
2023-03-17T01:55:45.464Z,7.80
2023-03-17T01:58:51.355Z,7.37
2023-03-17T02:02:01.375Z,10.80
2023-03-17T02:05:05.818Z,8.23
2023-03-17T02:08:13.153Z,8.27
2023-03-17T02:11:15.211Z,6.93
2023-03-17T02:14:16.780Z,7.63
2023-03-17T02:17:23.610Z,7.67
2023-03-17T02:20:25.136Z,6.10
2023-03-17T02:23:26.808Z,8.30
2023-03-17T02:26:31.529Z,9.27
2023-03-17T02:29:34.937Z,6.30
2023-03-17T02:32:37.467Z,7.67
2023-03-17T02:35:40.696Z,8.00
2023-03-17T02:38:42.423Z,8.07
2023-03-17T02:41:44.028Z,8.37
2023-03-17T02:44:45.662Z,6.93
2023-03-17T02:47:47.930Z,6.70
2023-03-17T02:50:49.573Z,7.30
2023-03-17T02:53:51.408Z,6.83
2023-03-17T02:56:53.088Z,6.50
2023-03-17T02:59:54.710Z,8.27
2023-03-17T03:02:56.869Z,8.23
2023-03-17T03:05:58.715Z,9.67
2023-03-17T03:09:00.640Z,7.63
2023-03-17T03:12:02.671Z,6.30
2023-03-17T03:15:05.382Z,9.07
2023-03-17T03:18:06.970Z,8.60
2023-03-17T03:21:09.541Z,9.30
2023-03-17T03:24:11.505Z,9.30
2023-03-17T03:27:13.096Z,14.03
2023-03-17T03:30:14.831Z,10.63
2023-03-17T03:33:17.368Z,7.60
2023-03-17T03:36:20.773Z,7.97
2023-03-17T03:39:22.389Z,9.30
2023-03-17T03:42:24.013Z,9.27
2023-03-17T03:45:25.765Z,7.90
2023-03-17T03:48:27.796Z,8.50
2023-03-17T03:51:29.467Z,6.80
2023-03-17T03:54:31.056Z,10.83
2023-03-17T03:57:32.613Z,9.23
2023-03-17T04:00:34.238Z,12.63
2023-03-17T04:03:37.478Z,8.73
2023-03-17T04:06:39.593Z,9.03
2023-03-17T04:09:41.404Z,7.10
2023-03-17T04:12:43.772Z,10.00
2023-03-17T04:15:45.440Z,9.13
2023-03-17T04:18:47.275Z,8.03
2023-03-17T04:21:49.400Z,7.33
2023-03-17T04:24:51.319Z,10.37
2023-03-17T04:27:52.906Z,7.00
2023-03-17T04:30:54.607Z,9.30
2023-03-17T04:33:56.582Z,14.17
2023-03-17T04:36:58.216Z,9.00
2023-03-17T04:39:59.804Z,12.27
2023-03-17T04:43:03.482Z,9.73
2023-03-17T04:46:05.528Z,9.87
2023-03-17T04:49:07.212Z,10.40
2023-03-17T04:52:08.872Z,8.20
2023-03-17T04:55:11.888Z,12.37
2023-03-17T04:58:21.097Z,11.90
2023-03-17T05:01:29.706Z,8.00
2023-03-17T05:04:32.472Z,10.40
2023-03-17T05:07:34.324Z,12.33
2023-03-17T05:10:36.155Z,9.00
2023-03-17T05:13:37.899Z,8.70
2023-03-17T05:16:39.534Z,11.60
2023-03-17T05:19:41.224Z,15.23
2023-03-17T05:22:42.946Z,11.53
2023-03-17T05:25:45.663Z,14.10
2023-03-17T05:28:48.323Z,12.90
2023-03-17T05:31:49.892Z,14.03
2023-03-17T05:34:51.976Z,15.53
2023-03-17T05:37:54.028Z,13.67
2023-03-17T05:40:55.693Z,16.63
2023-03-17T05:43:57.307Z,12.37
2023-03-17T05:46:59.646Z,16.20
2023-03-17T05:50:01.742Z,13.77
2023-03-17T05:53:03.368Z,12.40
2023-03-17T05:56:05.200Z,10.60
2023-03-17T05:59:06.759Z,11.03
2023-03-17T06:02:09.019Z,17.70
2023-03-17T06:05:10.737Z,11.33
2023-03-17T06:08:12.964Z,12.37
2023-03-17T06:11:14.515Z,11.43
2023-03-17T06:14:16.133Z,12.50
2023-03-17T06:17:18.122Z,16.23
2023-03-17T06:20:20.070Z,16.67
2023-03-17T06:23:23.519Z,29.00
2023-03-17T06:26:25.182Z,11.70
2023-03-17T06:29:28.610Z,17.67
2023-03-17T06:32:30.631Z,12.73
2023-03-17T06:35:33.466Z,20.17
2023-03-17T06:38:35.699Z,13.23
2023-03-17T06:41:37.317Z,14.43
2023-03-17T06:44:38.891Z,9.43
2023-03-17T06:47:40.518Z,11.17
2023-03-17T06:50:42.176Z,12.83
2023-03-17T06:53:43.767Z,10.30
2023-03-17T06:56:45.673Z,10.90
2023-03-17T06:59:47.274Z,13.90
2023-03-17T07:02:49.551Z,12.30
2023-03-17T07:05:51.988Z,10.70
2023-03-17T07:08:53.684Z,12.73
2023-03-17T07:11:55.361Z,10.33
2023-03-17T07:14:57.936Z,10.67
2023-03-17T07:17:59.527Z,11.40
2023-03-17T07:21:02.360Z,16.53
2023-03-17T07:24:04.404Z,12.97
2023-03-17T07:27:06.076Z,11.73
2023-03-17T07:30:08.692Z,10.17
2023-03-17T07:33:11.270Z,11.30
2023-03-17T07:36:13.086Z,11.57
2023-03-17T07:39:15.536Z,13.17
2023-03-17T07:42:17.555Z,11.13
2023-03-17T07:45:19.146Z,18.93
2023-03-17T07:48:21.099Z,11.50
2023-03-17T07:51:25.265Z,13.00
2023-03-17T07:54:27.637Z,13.23
2023-03-17T07:57:29.707Z,13.80
2023-03-17T08:00:32.082Z,12.70
2023-03-17T08:03:34.276Z,14.17
2023-03-17T08:06:35.885Z,11.30
2023-03-17T08:09:37.526Z,8.03
2023-03-17T08:12:40.600Z,9.70
2023-03-17T08:15:42.458Z,8.80
2023-03-17T08:18:44.387Z,7.20
2023-03-17T08:21:46.101Z,8.47
2023-03-17T08:24:47.703Z,10.57
2023-03-17T08:27:49.322Z,9.63
2023-03-17T08:30:50.981Z,9.27
2023-03-17T08:33:54.244Z,8.60
2023-03-17T08:36:56.513Z,9.10
2023-03-17T08:39:58.862Z,6.67
2023-03-17T08:43:00.494Z,8.57
2023-03-17T08:46:13.803Z,9.53
2023-03-17T08:49:16.400Z,8.57
2023-03-17T08:52:18.184Z,9.07
2023-03-17T08:55:20.668Z,10.10
2023-03-17T08:58:22.293Z,7.80
2023-03-17T09:01:24.769Z,9.17
2023-03-17T09:04:27.896Z,10.00
2023-03-17T09:07:29.512Z,8.83
2023-03-17T09:10:31.472Z,12.63
2023-03-17T09:13:34.426Z,11.50
2023-03-17T09:16:36.096Z,11.53
2023-03-17T09:19:38.723Z,11.83
2023-03-17T09:22:41.346Z,8.13
2023-03-17T09:25:43.299Z,10.60
2023-03-17T09:28:44.885Z,12.80
2023-03-17T09:31:47.446Z,8.60
2023-03-17T09:34:51.396Z,10.67
2023-03-17T09:37:53.284Z,13.13
2023-03-17T09:41:19.715Z,9.73
2023-03-17T09:44:45.183Z,9.00
2023-03-17T09:48:05.872Z,9.30
2023-03-17T09:51:18.406Z,8.70
2023-03-17T09:54:36.213Z,9.00
2023-03-17T09:57:40.266Z,8.73
2023-03-17T10:00:41.884Z,8.60
2023-03-17T10:03:43.487Z,8.17
2023-03-17T10:06:51.933Z,8.37
2023-03-17T10:10:03.044Z,8.07
2023-03-17T10:13:29.424Z,8.83
2023-03-17T10:17:15.297Z,11.13
2023-03-17T10:20:27.040Z,9.20
2023-03-17T10:23:32.219Z,10.57
2023-03-17T10:26:45.974Z,8.77
2023-03-17T10:29:48.663Z,8.67
2023-03-17T10:32:52.397Z,11.53
2023-03-17T10:35:54.055Z,9.97
2023-03-17T10:38:56.027Z,8.70
2023-03-17T10:42:09.298Z,9.50
2023-03-17T10:45:29.471Z,10.73
2023-03-17T10:48:36.300Z,8.63
2023-03-17T10:51:40.464Z,8.80
2023-03-17T10:54:48.549Z,7.47
2023-03-17T10:58:01.894Z,11.90
2023-03-17T11:01:16.123Z,8.50
2023-03-17T11:04:33.623Z,9.20
2023-03-17T11:07:40.657Z,8.07
2023-03-17T11:10:42.440Z,7.20
2023-03-17T11:13:43.998Z,9.17
2023-03-17T11:16:55.795Z,8.17
2023-03-17T11:20:27.573Z,8.40
2023-03-17T11:23:44.108Z,8.50
2023-03-17T11:26:59.153Z,8.77
2023-03-17T11:30:25.236Z,8.37
2023-03-17T11:33:33.615Z,10.37
2023-03-17T11:36:41.310Z,9.50
2023-03-17T11:39:43.142Z,8.77
2023-03-17T11:43:18.953Z,11.20
2023-03-17T11:46:43.415Z,10.20
2023-03-17T11:49:51.984Z,7.70
2023-03-17T11:53:18.266Z,10.70
2023-03-17T11:57:01.209Z,9.13
2023-03-17T12:00:07.363Z,9.30
2023-03-17T12:03:40.168Z,8.80
2023-03-17T12:06:50.538Z,8.33
2023-03-17T12:10:06.579Z,9.10
2023-03-17T12:13:39.762Z,8.87
2023-03-17T12:16:49.638Z,10.60
2023-03-17T12:20:09.809Z,10.67
2023-03-17T12:23:29.713Z,9.30
2023-03-17T12:26:49.337Z,9.30
2023-03-17T12:30:20.782Z,10.90
2023-03-17T12:33:52.496Z,10.63
2023-03-17T12:36:54.231Z,10.00
2023-03-17T12:40:20.155Z,10.57
2023-03-17T12:43:39.987Z,9.73
2023-03-17T12:46:50.535Z,9.00
2023-03-17T12:50:05.671Z,9.37
2023-03-17T12:53:28.396Z,9.87
2023-03-17T12:56:32.533Z,9.23
2023-03-17T12:59:36.322Z,10.40
2023-03-17T13:02:39.680Z,11.47
2023-03-17T13:05:46.957Z,10.57
2023-03-17T13:08:51.955Z,9.83
2023-03-17T13:11:53.875Z,12.23
2023-03-17T13:14:58.455Z,9.97
2023-03-17T13:18:18.312Z,9.53
2023-03-17T13:21:23.260Z,10.53
2023-03-17T13:24:47.280Z,9.07
2023-03-17T13:27:49.857Z,7.13
2023-03-17T13:30:54.995Z,8.40
2023-03-17T13:34:12.709Z,6.63
2023-03-17T13:37:27.486Z,11.83
2023-03-17T13:41:04.275Z,8.00
2023-03-17T13:44:15.559Z,13.07
2023-03-17T13:47:31.124Z,8.30
2023-03-17T13:50:33.739Z,8.60
2023-03-17T13:53:57.276Z,6.50
2023-03-17T13:57:21.798Z,8.13
2023-03-17T14:00:27.758Z,7.90
2023-03-17T14:03:37.826Z,7.60
2023-03-17T14:06:39.864Z,11.20
2023-03-17T14:09:43.397Z,14.40
2023-03-17T14:12:57.766Z,11.83
2023-03-17T14:16:05.485Z,9.23
2023-03-17T14:19:22.968Z,10.53
2023-03-17T14:22:25.246Z,7.60
2023-03-17T14:25:34.541Z,7.73
2023-03-17T14:28:36.940Z,9.43
2023-03-17T14:31:38.535Z,5.70
2023-03-17T14:35:02.003Z,10.40
2023-03-17T14:38:13.365Z,11.43
2023-03-17T14:41:14.927Z,6.83
2023-03-17T14:44:16.845Z,7.40
2023-03-17T14:47:25.212Z,10.80
2023-03-17T14:50:32.369Z,7.93
2023-03-17T14:53:42.902Z,6.87
2023-03-17T14:56:48.537Z,6.40
2023-03-17T14:59:59.009Z,7.73
2023-03-17T15:03:05.479Z,6.40
2023-03-17T15:06:24.248Z,5.27
2023-03-17T15:09:33.135Z,9.13
2023-03-17T15:12:34.780Z,6.37
2023-03-17T15:15:38.872Z,5.53
2023-03-17T15:18:40.502Z,9.83
2023-03-17T15:21:43.092Z,16.33
2023-03-17T15:24:44.652Z,7.47
2023-03-17T15:27:47.420Z,7.60
2023-03-17T15:30:51.749Z,6.87
2023-03-17T15:33:53.474Z,7.37
2023-03-17T15:36:55.594Z,7.90
2023-03-17T15:39:59.012Z,7.03
2023-03-17T15:43:00.774Z,9.70
2023-03-17T15:46:08.343Z,11.00
2023-03-17T15:49:12.314Z,9.47
2023-03-17T15:52:27.695Z,7.63
2023-03-17T15:55:31.088Z,7.97
2023-03-17T15:58:32.902Z,11.37
2023-03-17T16:01:35.289Z,9.30
2023-03-17T16:04:37.004Z,9.67
2023-03-17T16:07:38.721Z,9.80
2023-03-17T16:10:40.885Z,10.40
2023-03-17T16:13:42.655Z,12.30
2023-03-17T16:16:45.791Z,11.00
2023-03-17T16:19:48.764Z,10.47
2023-03-17T16:22:52.373Z,13.23
2023-03-17T16:25:59.299Z,8.17
2023-03-17T16:29:13.585Z,9.30
2023-03-17T16:32:15.306Z,9.63
2023-03-17T16:35:22.292Z,9.53
2023-03-17T16:38:26.740Z,10.73
2023-03-17T16:41:29.458Z,13.37
2023-03-17T16:44:31.818Z,15.70
2023-03-17T16:47:33.387Z,22.37
2023-03-17T16:50:35.181Z,9.23
2023-03-17T16:53:36.737Z,13.33
2023-03-17T16:56:41.014Z,18.23
2023-03-17T16:59:42.651Z,15.90
2023-03-17T17:02:44.979Z,14.60
2023-03-17T17:05:46.721Z,12.17
2023-03-17T17:08:49.374Z,18.53
2023-03-17T17:11:51.037Z,15.23
2023-03-17T17:14:52.585Z,11.03
2023-03-17T17:17:57.738Z,13.60
2023-03-17T17:20:59.322Z,9.77
2023-03-17T17:24:00.989Z,13.40
2023-03-17T17:27:02.583Z,11.60
2023-03-17T17:30:05.713Z,13.00
2023-03-17T17:33:08.455Z,13.50
2023-03-17T17:36:16.162Z,15.93
2023-03-17T17:39:17.833Z,21.10
2023-03-17T17:42:20.479Z,18.23
2023-03-17T17:45:22.468Z,15.10
2023-03-17T17:48:26.153Z,17.40
2023-03-17T17:51:28.674Z,19.13
2023-03-17T17:54:30.389Z,14.07
2023-03-17T17:57:32.050Z,17.70
2023-03-17T18:00:34.025Z,16.60
2023-03-17T18:03:35.893Z,19.27
2023-03-17T18:06:37.497Z,12.23
2023-03-17T18:09:39.196Z,12.20
2023-03-17T18:12:40.761Z,11.13
2023-03-17T18:15:42.749Z,16.67
2023-03-17T18:18:46.125Z,13.53
2023-03-17T18:21:47.765Z,12.90
2023-03-17T18:24:49.861Z,17.47
2023-03-17T18:27:51.706Z,17.83
2023-03-17T18:30:53.913Z,17.47
2023-03-17T18:33:59.915Z,13.60
2023-03-17T18:37:01.874Z,13.60
2023-03-17T18:40:14.455Z,15.57
2023-03-17T18:43:18.326Z,16.83
2023-03-17T18:46:19.940Z,17.30
2023-03-17T18:49:23.964Z,17.87
2023-03-17T18:52:31.489Z,14.37
2023-03-17T18:55:33.289Z,16.50
2023-03-17T18:58:36.183Z,16.97
2023-03-17T19:01:38.263Z,18.57
2023-03-17T19:04:45.949Z,16.63
2023-03-17T19:07:47.704Z,16.17
2023-03-17T19:10:49.690Z,14.07
2023-03-17T19:13:52.360Z,20.40
2023-03-17T19:16:54.001Z,15.43
2023-03-17T19:19:55.757Z,15.23
2023-03-17T19:22:58.258Z,11.60
2023-03-17T19:26:00.409Z,14.73
2023-03-17T19:29:02.069Z,12.37
2023-03-17T19:32:03.811Z,16.47
2023-03-17T19:35:07.420Z,14.00
2023-03-17T19:38:09.791Z,16.00
2023-03-17T19:41:11.704Z,14.90
2023-03-17T19:44:13.365Z,16.03
2023-03-17T19:47:15.426Z,14.20
2023-03-17T19:50:17.174Z,14.67
2023-03-17T19:53:18.735Z,16.70
2023-03-17T19:56:21.088Z,13.20
2023-03-17T19:59:23.440Z,14.10
2023-03-17T20:02:25.027Z,13.27
2023-03-17T20:05:26.639Z,18.70
2023-03-17T20:08:28.204Z,26.80
2023-03-17T20:11:33.606Z,22.83
2023-03-17T20:14:35.193Z,21.70
2023-03-17T20:17:36.885Z,18.90
2023-03-17T20:20:38.525Z,23.13
2023-03-17T20:23:40.171Z,23.67
2023-03-17T20:26:43.229Z,15.50
2023-03-17T20:29:45.328Z,19.90
2023-03-17T20:32:46.892Z,16.50
2023-03-17T20:35:48.609Z,16.93
2023-03-17T20:38:50.712Z,17.60
2023-03-17T20:41:52.360Z,19.00
2023-03-17T20:44:54.015Z,18.63
2023-03-17T20:47:55.950Z,14.30
2023-03-17T20:50:58.218Z,19.23
2023-03-17T20:54:01.583Z,18.30
2023-03-17T20:57:03.186Z,19.20
2023-03-17T21:00:05.338Z,17.73
2023-03-17T21:03:07.180Z,14.80
2023-03-17T21:06:09.576Z,12.93
2023-03-17T21:09:11.128Z,18.63
2023-03-17T21:12:19.396Z,16.23
2023-03-17T21:15:22.801Z,20.93
2023-03-17T21:18:24.481Z,13.60
2023-03-17T21:21:27.209Z,10.90
2023-03-17T21:24:32.306Z,10.83
2023-03-17T21:27:36.794Z,15.07
2023-03-17T21:30:39.128Z,11.30
2023-03-17T21:33:43.374Z,12.57
2023-03-17T21:36:45.153Z,14.97
2023-03-17T21:39:46.755Z,11.83
2023-03-17T21:42:49.235Z,9.47
2023-03-17T21:45:51.433Z,14.20
2023-03-17T21:48:53.981Z,11.80
2023-03-17T21:51:55.685Z,11.17
2023-03-17T21:54:57.354Z,10.67
2023-03-17T21:57:59.121Z,11.10
2023-03-17T22:01:01.379Z,10.27
2023-03-17T22:04:03.103Z,11.57
2023-03-17T22:07:04.743Z,9.70
2023-03-17T22:10:07.159Z,9.10
2023-03-17T22:13:08.785Z,11.13
2023-03-17T22:16:12.339Z,10.33
2023-03-17T22:19:13.982Z,11.87
2023-03-17T22:22:15.854Z,12.90
2023-03-17T22:25:17.543Z,17.60
2023-03-17T22:28:19.449Z,10.70
2023-03-17T22:31:25.459Z,10.53
2023-03-17T22:34:27.448Z,15.83
2023-03-17T22:37:29.052Z,16.03
2023-03-17T22:40:30.922Z,11.57
2023-03-17T22:43:32.756Z,12.23
2023-03-17T22:46:34.803Z,11.87
2023-03-17T22:49:36.628Z,12.10
2023-03-17T22:52:38.616Z,10.50
2023-03-17T22:55:40.220Z,10.43
2023-03-17T22:58:42.620Z,11.30
2023-03-17T23:01:45.794Z,12.97
2023-03-17T23:04:47.376Z,9.60
2023-03-17T23:07:51.380Z,9.87
2023-03-17T23:10:53.986Z,12.20
2023-03-17T23:13:56.376Z,11.10
2023-03-17T23:16:58.032Z,14.80
2023-03-17T23:19:59.678Z,10.47
2023-03-17T23:23:01.361Z,12.23
2023-03-17T23:26:03.051Z,14.43
2023-03-17T23:29:06.888Z,10.60
2023-03-17T23:32:10.254Z,9.97
2023-03-17T23:35:13.443Z,13.90
2023-03-17T23:38:15.055Z,13.90
2023-03-17T23:41:17.366Z,15.13
2023-03-17T23:44:18.934Z,14.60
2023-03-17T23:47:21.230Z,13.17
2023-03-17T23:50:23.568Z,11.10
2023-03-17T23:53:26.375Z,14.60
2023-03-17T23:56:27.943Z,14.20
2023-03-17T23:59:29.563Z,14.03
